sensor_id;sensor_type;location;lat;lon;timestamp;temperature;humidity
25616;DHT22;13482;48.234;13.006;2022-09-30T00:01:35;13.30;76.20
25616;DHT22;13482;48.234;13.006;2022-09-30T00:04:09;13.30;76.30
25616;DHT22;13482;48.234;13.006;2022-09-30T00:06:39;13.30;76.30
25616;DHT22;13482;48.234;13.006;2022-09-30T00:09:07;13.30;76.30
25616;DHT22;13482;48.234;13.006;2022-09-30T00:11:34;13.40;76.30
25616;DHT22;13482;48.234;13.006;2022-09-30T00:14:02;13.40;76.40
25616;DHT22;13482;48.234;13.006;2022-09-30T00:16:31;13.40;76.40
25616;DHT22;13482;48.234;13.006;2022-09-30T00:19:00;13.40;76.40
25616;DHT22;13482;48.234;13.006;2022-09-30T00:21:30;13.40;76.40
25616;DHT22;13482;48.234;13.006;2022-09-30T00:24:00;13.40;76.30
25616;DHT22;13482;48.234;13.006;2022-09-30T00:26:28;13.40;76.30
25616;DHT22;13482;48.234;13.006;2022-09-30T00:28:57;13.40;76.30
25616;DHT22;13482;48.234;13.006;2022-09-30T00:31:28;13.40;76.40
25616;DHT22;13482;48.234;13.006;2022-09-30T00:33:57;13.40;76.40
25616;DHT22;13482;48.234;13.006;2022-09-30T00:36:54;13.40;76.40
25616;DHT22;13482;48.234;13.006;2022-09-30T00:39:25;13.40;77.00
25616;DHT22;13482;48.234;13.006;2022-09-30T00:41:57;13.40;76.40
25616;DHT22;13482;48.234;13.006;2022-09-30T00:48:04;13.40;76.90
25616;DHT22;13482;48.234;13.006;2022-09-30T00:53:08;13.40;76.40
25616;DHT22;13482;48.234;13.006;2022-09-30T00:56:09;13.40;76.50
25616;DHT22;13482;48.234;13.006;2022-09-30T01:01:15;13.40;76.50
25616;DHT22;13482;48.234;13.006;2022-09-30T01:03:59;13.40;76.50
25616;DHT22;13482;48.234;13.006;2022-09-30T01:06:28;13.40;76.90
25616;DHT22;13482;48.234;13.006;2022-09-30T01:08:56;13.40;76.50
25616;DHT22;13482;48.234;13.006;2022-09-30T01:11:27;13.40;76.50
25616;DHT22;13482;48.234;13.006;2022-09-30T01:13:58;13.40;76.50
25616;DHT22;13482;48.234;13.006;2022-09-30T01:25:02;13.40;76.70
25616;DHT22;13482;48.234;13.006;2022-09-30T01:37:24;13.50;76.40
25616;DHT22;13482;48.234;13.006;2022-09-30T01:40:22;13.40;76.30
25616;DHT22;13482;48.234;13.006;2022-09-30T01:46:02;13.50;76.60
25616;DHT22;13482;48.234;13.006;2022-09-30T01:48:34;13.50;76.50
25616;DHT22;13482;48.234;13.006;2022-09-30T01:51:44;13.40;76.40
25616;DHT22;13482;48.234;13.006;2022-09-30T01:57:13;13.40;76.30
25616;DHT22;13482;48.234;13.006;2022-09-30T02:00:10;13.50;76.50
25616;DHT22;13482;48.234;13.006;2022-09-30T02:03:00;13.50;76.90
25616;DHT22;13482;48.234;13.006;2022-09-30T02:05:41;13.50;76.70
25616;DHT22;13482;48.234;13.006;2022-09-30T02:08:27;13.50;76.60
25616;DHT22;13482;48.234;13.006;2022-09-30T02:11:14;13.50;76.40
25616;DHT22;13482;48.234;13.006;2022-09-30T02:13:45;13.50;76.50
25616;DHT22;13482;48.234;13.006;2022-09-30T02:16:21;13.40;76.40
25616;DHT22;13482;48.234;13.006;2022-09-30T02:19:10;13.40;76.50
25616;DHT22;13482;48.234;13.006;2022-09-30T02:21:51;13.40;76.50
25616;DHT22;13482;48.234;13.006;2022-09-30T02:24:24;13.40;76.40
25616;DHT22;13482;48.234;13.006;2022-09-30T02:26:55;13.40;76.50
25616;DHT22;13482;48.234;13.006;2022-09-30T02:29:35;13.40;76.50
25616;DHT22;13482;48.234;13.006;2022-09-30T02:32:17;13.40;76.90
25616;DHT22;13482;48.234;13.006;2022-09-30T02:35:13;13.40;76.70
25616;DHT22;13482;48.234;13.006;2022-09-30T02:37:57;13.40;76.60
25616;DHT22;13482;48.234;13.006;2022-09-30T02:40:33;13.40;76.60
25616;DHT22;13482;48.234;13.006;2022-09-30T02:43:06;13.40;76.60
25616;DHT22;13482;48.234;13.006;2022-09-30T02:45:45;13.30;76.60
25616;DHT22;13482;48.234;13.006;2022-09-30T02:48:29;13.30;76.80
25616;DHT22;13482;48.234;13.006;2022-09-30T02:51:21;13.30;76.60
25616;DHT22;13482;48.234;13.006;2022-09-30T02:54:29;13.30;77.00
25616;DHT22;13482;48.234;13.006;2022-09-30T02:59:34;13.30;76.60
25616;DHT22;13482;48.234;13.006;2022-09-30T03:02:02;13.20;76.70
25616;DHT22;13482;48.234;13.006;2022-09-30T03:04:32;13.20;76.70
25616;DHT22;13482;48.234;13.006;2022-09-30T03:07:00;13.20;76.80
25616;DHT22;13482;48.234;13.006;2022-09-30T03:09:28;13.20;76.80
25616;DHT22;13482;48.234;13.006;2022-09-30T03:35:39;13.20;77.30
25616;DHT22;13482;48.234;13.006;2022-09-30T03:42:21;13.20;77.30
25616;DHT22;13482;48.234;13.006;2022-09-30T03:47:35;13.20;76.80
25616;DHT22;13482;48.234;13.006;2022-09-30T03:50:11;13.20;76.80
25616;DHT22;13482;48.234;13.006;2022-09-30T03:52:41;13.20;76.90
25616;DHT22;13482;48.234;13.006;2022-09-30T03:55:08;13.20;76.90
25616;DHT22;13482;48.234;13.006;2022-09-30T03:57:37;13.20;76.90
25616;DHT22;13482;48.234;13.006;2022-09-30T04:00:06;13.20;76.90
25616;DHT22;13482;48.234;13.006;2022-09-30T04:02:33;13.20;76.90
25616;DHT22;13482;48.234;13.006;2022-09-30T04:05:04;13.20;76.90
25616;DHT22;13482;48.234;13.006;2022-09-30T04:07:32;13.20;76.90
25616;DHT22;13482;48.234;13.006;2022-09-30T04:09:59;13.20;76.90
25616;DHT22;13482;48.234;13.006;2022-09-30T04:12:26;13.20;76.90
25616;DHT22;13482;48.234;13.006;2022-09-30T04:14:54;13.20;76.90
25616;DHT22;13482;48.234;13.006;2022-09-30T04:17:21;13.30;76.90
25616;DHT22;13482;48.234;13.006;2022-09-30T04:19:49;13.20;76.90
25616;DHT22;13482;48.234;13.006;2022-09-30T04:22:16;13.20;76.90
25616;DHT22;13482;48.234;13.006;2022-09-30T04:24:43;13.20;76.90
25616;DHT22;13482;48.234;13.006;2022-09-30T04:27:10;13.20;76.90
25616;DHT22;13482;48.234;13.006;2022-09-30T04:29:38;13.20;76.90
25616;DHT22;13482;48.234;13.006;2022-09-30T04:32:05;13.20;76.90
25616;DHT22;13482;48.234;13.006;2022-09-30T04:34:32;13.20;76.90
25616;DHT22;13482;48.234;13.006;2022-09-30T04:36:59;13.20;76.90
25616;DHT22;13482;48.234;13.006;2022-09-30T04:39:26;13.20;76.90
25616;DHT22;13482;48.234;13.006;2022-09-30T04:41:53;13.20;76.90
25616;DHT22;13482;48.234;13.006;2022-09-30T04:44:20;13.20;77.00
25616;DHT22;13482;48.234;13.006;2022-09-30T04:46:48;13.20;76.90
25616;DHT22;13482;48.234;13.006;2022-09-30T04:49:16;13.20;76.90
25616;DHT22;13482;48.234;13.006;2022-09-30T04:51:43;13.20;77.00
25616;DHT22;13482;48.234;13.006;2022-09-30T04:54:12;13.20;77.00
25616;DHT22;13482;48.234;13.006;2022-09-30T04:56:39;13.20;77.00
25616;DHT22;13482;48.234;13.006;2022-09-30T04:59:07;13.20;77.00
25616;DHT22;13482;48.234;13.006;2022-09-30T05:01:34;13.20;77.00
25616;DHT22;13482;48.234;13.006;2022-09-30T05:04:01;13.20;77.00
25616;DHT22;13482;48.234;13.006;2022-09-30T05:06:29;13.20;77.00
25616;DHT22;13482;48.234;13.006;2022-09-30T05:08:56;13.20;77.00
25616;DHT22;13482;48.234;13.006;2022-09-30T05:11:23;13.20;77.00
25616;DHT22;13482;48.234;13.006;2022-09-30T05:13:51;13.30;77.00
25616;DHT22;13482;48.234;13.006;2022-09-30T05:16:18;13.30;77.00
25616;DHT22;13482;48.234;13.006;2022-09-30T05:18:45;13.30;77.00
25616;DHT22;13482;48.234;13.006;2022-09-30T05:21:15;13.30;77.00
25616;DHT22;13482;48.234;13.006;2022-09-30T05:23:44;13.30;77.00
25616;DHT22;13482;48.234;13.006;2022-09-30T05:26:11;13.30;77.00
25616;DHT22;13482;48.234;13.006;2022-09-30T05:28:40;13.30;77.00
25616;DHT22;13482;48.234;13.006;2022-09-30T05:31:07;13.30;77.00
25616;DHT22;13482;48.234;13.006;2022-09-30T05:33:35;13.30;77.00
25616;DHT22;13482;48.234;13.006;2022-09-30T05:36:05;13.40;77.00
25616;DHT22;13482;48.234;13.006;2022-09-30T05:38:33;13.40;77.00
25616;DHT22;13482;48.234;13.006;2022-09-30T05:41:06;13.40;77.00
25616;DHT22;13482;48.234;13.006;2022-09-30T05:43:41;13.40;77.10
25616;DHT22;13482;48.234;13.006;2022-09-30T05:46:11;13.40;77.10
25616;DHT22;13482;48.234;13.006;2022-09-30T05:48:38;13.50;77.10
25616;DHT22;13482;48.234;13.006;2022-09-30T05:51:05;13.50;77.10
25616;DHT22;13482;48.234;13.006;2022-09-30T05:53:35;13.50;77.20
25616;DHT22;13482;48.234;13.006;2022-09-30T05:56:08;13.50;77.20
25616;DHT22;13482;48.234;13.006;2022-09-30T05:58:36;13.50;77.20
25616;DHT22;13482;48.234;13.006;2022-09-30T06:01:05;13.60;77.10
25616;DHT22;13482;48.234;13.006;2022-09-30T06:03:41;13.60;77.10
25616;DHT22;13482;48.234;13.006;2022-09-30T06:06:09;13.60;77.10
25616;DHT22;13482;48.234;13.006;2022-09-30T06:08:37;13.60;77.10
25616;DHT22;13482;48.234;13.006;2022-09-30T06:11:13;13.60;77.10
25616;DHT22;13482;48.234;13.006;2022-09-30T06:13:43;13.70;77.20
25616;DHT22;13482;48.234;13.006;2022-09-30T06:16:11;13.70;77.10
25616;DHT22;13482;48.234;13.006;2022-09-30T06:18:39;13.70;77.10
25616;DHT22;13482;48.234;13.006;2022-09-30T06:21:09;13.70;77.20
25616;DHT22;13482;48.234;13.006;2022-09-30T06:23:38;13.70;77.20
25616;DHT22;13482;48.234;13.006;2022-09-30T06:26:09;13.70;77.10
25616;DHT22;13482;48.234;13.006;2022-09-30T06:28:37;13.80;77.00
25616;DHT22;13482;48.234;13.006;2022-09-30T06:31:05;13.80;77.00
25616;DHT22;13482;48.234;13.006;2022-09-30T06:33:33;13.80;76.90
25616;DHT22;13482;48.234;13.006;2022-09-30T06:36:00;13.80;77.00
25616;DHT22;13482;48.234;13.006;2022-09-30T06:38:31;13.80;77.00
25616;DHT22;13482;48.234;13.006;2022-09-30T06:41:00;13.80;77.10
25616;DHT22;13482;48.234;13.006;2022-09-30T06:43:27;13.80;77.20
25616;DHT22;13482;48.234;13.006;2022-09-30T06:45:54;13.90;77.40
25616;DHT22;13482;48.234;13.006;2022-09-30T06:48:37;13.90;77.30
25616;DHT22;13482;48.234;13.006;2022-09-30T06:51:06;14.00;77.30
25616;DHT22;13482;48.234;13.006;2022-09-30T06:53:37;14.00;77.30
25616;DHT22;13482;48.234;13.006;2022-09-30T06:56:05;14.00;77.30
25616;DHT22;13482;48.234;13.006;2022-09-30T06:58:33;14.10;77.50
25616;DHT22;13482;48.234;13.006;2022-09-30T07:01:03;14.10;77.70
25616;DHT22;13482;48.234;13.006;2022-09-30T07:03:33;14.20;78.10
25616;DHT22;13482;48.234;13.006;2022-09-30T07:06:03;14.30;78.40
25616;DHT22;13482;48.234;13.006;2022-09-30T07:08:33;14.40;78.30
25616;DHT22;13482;48.234;13.006;2022-09-30T07:11:04;14.60;78.30
25616;DHT22;13482;48.234;13.006;2022-09-30T07:13:44;14.70;78.30
25616;DHT22;13482;48.234;13.006;2022-09-30T07:16:13;14.80;78.50
25616;DHT22;13482;48.234;13.006;2022-09-30T07:18:42;15.00;78.60
25616;DHT22;13482;48.234;13.006;2022-09-30T07:21:12;15.10;78.20
25616;DHT22;13482;48.234;13.006;2022-09-30T07:23:43;15.30;78.10
25616;DHT22;13482;48.234;13.006;2022-09-30T07:26:19;15.40;77.90
25616;DHT22;13482;48.234;13.006;2022-09-30T07:28:49;15.50;77.40
25616;DHT22;13482;48.234;13.006;2022-09-30T07:31:24;15.60;77.00
25616;DHT22;13482;48.234;13.006;2022-09-30T07:33:59;15.60;76.50
25616;DHT22;13482;48.234;13.006;2022-09-30T07:36:27;15.70;76.30
25616;DHT22;13482;48.234;13.006;2022-09-30T07:39:00;15.70;76.20
25616;DHT22;13482;48.234;13.006;2022-09-30T07:41:32;15.70;76.30
25616;DHT22;13482;48.234;13.006;2022-09-30T07:44:02;15.80;76.30
25616;DHT22;13482;48.234;13.006;2022-09-30T07:46:32;15.80;76.20
25616;DHT22;13482;48.234;13.006;2022-09-30T07:49:00;15.90;76.20
25616;DHT22;13482;48.234;13.006;2022-09-30T07:51:38;16.00;76.50
25616;DHT22;13482;48.234;13.006;2022-09-30T07:54:15;16.00;76.40
25616;DHT22;13482;48.234;13.006;2022-09-30T07:56:44;16.10;76.20
25616;DHT22;13482;48.234;13.006;2022-09-30T07:59:35;16.20;76.40
25616;DHT22;13482;48.234;13.006;2022-09-30T08:02:05;16.30;76.60
25616;DHT22;13482;48.234;13.006;2022-09-30T08:04:34;16.40;76.70
25616;DHT22;13482;48.234;13.006;2022-09-30T08:07:07;16.60;77.00
25616;DHT22;13482;48.234;13.006;2022-09-30T08:09:34;16.80;76.80
25616;DHT22;13482;48.234;13.006;2022-09-30T08:12:02;17.00;76.40
25616;DHT22;13482;48.234;13.006;2022-09-30T08:14:31;17.10;75.70
25616;DHT22;13482;48.234;13.006;2022-09-30T08:16:58;17.30;75.30
25616;DHT22;13482;48.234;13.006;2022-09-30T08:19:28;17.40;74.90
25616;DHT22;13482;48.234;13.006;2022-09-30T08:21:56;17.40;74.30
25616;DHT22;13482;48.234;13.006;2022-09-30T08:24:24;17.50;74.60
25616;DHT22;13482;48.234;13.006;2022-09-30T08:26:53;17.60;74.90
25616;DHT22;13482;48.234;13.006;2022-09-30T08:29:21;17.70;74.70
25616;DHT22;13482;48.234;13.006;2022-09-30T08:32:08;17.80;74.20
25616;DHT22;13482;48.234;13.006;2022-09-30T08:34:35;17.80;73.90
25616;DHT22;13482;48.234;13.006;2022-09-30T08:37:03;17.90;73.70
25616;DHT22;13482;48.234;13.006;2022-09-30T08:39:38;17.90;74.20
25616;DHT22;13482;48.234;13.006;2022-09-30T08:42:42;18.00;74.50
25616;DHT22;13482;48.234;13.006;2022-09-30T08:45:35;18.10;74.70
25616;DHT22;13482;48.234;13.006;2022-09-30T08:48:45;18.40;74.70
25616;DHT22;13482;48.234;13.006;2022-09-30T08:51:30;18.70;73.80
25616;DHT22;13482;48.234;13.006;2022-09-30T08:54:10;18.90;74.80
25616;DHT22;13482;48.234;13.006;2022-09-30T08:56:42;19.10;74.90
25616;DHT22;13482;48.234;13.006;2022-09-30T08:59:36;19.40;74.20
25616;DHT22;13482;48.234;13.006;2022-09-30T09:02:15;19.60;71.80
25616;DHT22;13482;48.234;13.006;2022-09-30T09:04:49;19.70;72.10
25616;DHT22;13482;48.234;13.006;2022-09-30T09:10:37;20.00;71.40
25616;DHT22;13482;48.234;13.006;2022-09-30T09:21:22;20.20;70.40
25616;DHT22;13482;48.234;13.006;2022-09-30T09:23:55;20.20;70.40
25616;DHT22;13482;48.234;13.006;2022-09-30T09:26:25;20.20;69.70
25616;DHT22;13482;48.234;13.006;2022-09-30T09:32:15;20.00;69.10
25616;DHT22;13482;48.234;13.006;2022-09-30T09:34:48;19.90;68.00
25616;DHT22;13482;48.234;13.006;2022-09-30T09:37:21;19.80;69.20
25616;DHT22;13482;48.234;13.006;2022-09-30T09:40:25;19.60;68.80
25616;DHT22;13482;48.234;13.006;2022-09-30T09:43:05;19.50;69.10
25616;DHT22;13482;48.234;13.006;2022-09-30T09:48:26;19.30;69.60
25616;DHT22;13482;48.234;13.006;2022-09-30T09:51:05;19.30;71.00
25616;DHT22;13482;48.234;13.006;2022-09-30T09:53:42;19.40;70.10
25616;DHT22;13482;48.234;13.006;2022-09-30T09:56:25;19.50;70.10
25616;DHT22;13482;48.234;13.006;2022-09-30T09:59:17;19.50;69.40
25616;DHT22;13482;48.234;13.006;2022-09-30T10:01:52;19.40;68.20
25616;DHT22;13482;48.234;13.006;2022-09-30T10:04:25;19.40;69.40
25616;DHT22;13482;48.234;13.006;2022-09-30T10:07:00;19.40;69.10
25616;DHT22;13482;48.234;13.006;2022-09-30T10:09:34;19.30;69.40
25616;DHT22;13482;48.234;13.006;2022-09-30T10:14:39;19.30;69.90
25616;DHT22;13482;48.234;13.006;2022-09-30T10:17:33;19.30;70.10
25616;DHT22;13482;48.234;13.006;2022-09-30T10:23:18;19.50;69.30
25616;DHT22;13482;48.234;13.006;2022-09-30T10:28:46;19.70;69.50
25616;DHT22;13482;48.234;13.006;2022-09-30T10:34:10;19.70;69.60
25616;DHT22;13482;48.234;13.006;2022-09-30T10:36:45;19.70;68.90
25616;DHT22;13482;48.234;13.006;2022-09-30T10:39:24;19.70;69.80
25616;DHT22;13482;48.234;13.006;2022-09-30T10:44:54;19.80;69.20
25616;DHT22;13482;48.234;13.006;2022-09-30T10:47:24;19.90;69.40
25616;DHT22;13482;48.234;13.006;2022-09-30T10:52:58;19.90;69.20
25616;DHT22;13482;48.234;13.006;2022-09-30T10:55:44;19.90;68.80
25616;DHT22;13482;48.234;13.006;2022-09-30T10:58:48;19.90;69.10
25616;DHT22;13482;48.234;13.006;2022-09-30T11:01:46;19.90;68.50
25616;DHT22;13482;48.234;13.006;2022-09-30T11:04:38;19.90;68.70
25616;DHT22;13482;48.234;13.006;2022-09-30T11:10:05;20.00;68.40
25616;DHT22;13482;48.234;13.006;2022-09-30T11:12:51;20.00;69.00
25616;DHT22;13482;48.234;13.006;2022-09-30T11:15:56;20.00;68.50
25616;DHT22;13482;48.234;13.006;2022-09-30T11:18:42;20.00;67.80
25616;DHT22;13482;48.234;13.006;2022-09-30T11:21:45;20.10;68.30
25616;DHT22;13482;48.234;13.006;2022-09-30T11:24:41;20.10;68.00
25616;DHT22;13482;48.234;13.006;2022-09-30T11:41:36;20.30;69.10
25616;DHT22;13482;48.234;13.006;2022-09-30T11:44:21;20.40;68.60
25616;DHT22;13482;48.234;13.006;2022-09-30T11:47:23;20.40;68.30
25616;DHT22;13482;48.234;13.006;2022-09-30T11:53:05;20.40;67.90
25616;DHT22;13482;48.234;13.006;2022-09-30T11:58:49;20.30;67.90
25616;DHT22;13482;48.234;13.006;2022-09-30T12:01:24;20.20;67.70
25616;DHT22;13482;48.234;13.006;2022-09-30T12:07:03;20.10;67.60
25616;DHT22;13482;48.234;13.006;2022-09-30T12:09:47;20.10;67.40
25616;DHT22;13482;48.234;13.006;2022-09-30T12:12:18;20.00;67.60
25616;DHT22;13482;48.234;13.006;2022-09-30T12:14:49;19.90;67.90
25616;DHT22;13482;48.234;13.006;2022-09-30T12:17:46;19.90;68.00
25616;DHT22;13482;48.234;13.006;2022-09-30T12:20:36;19.90;67.60
25616;DHT22;13482;48.234;13.006;2022-09-30T12:23:18;19.80;68.10
25616;DHT22;13482;48.234;13.006;2022-09-30T12:26:01;19.80;67.90
25616;DHT22;13482;48.234;13.006;2022-09-30T12:34:43;19.70;67.90
25616;DHT22;13482;48.234;13.006;2022-09-30T12:41:14;19.60;67.90
25616;DHT22;13482;48.234;13.006;2022-09-30T12:49:57;19.50;68.00
25616;DHT22;13482;48.234;13.006;2022-09-30T12:52:32;19.50;68.70
25616;DHT22;13482;48.234;13.006;2022-09-30T12:57:39;19.50;68.40
25616;DHT22;13482;48.234;13.006;2022-09-30T13:00:16;19.50;68.50
25616;DHT22;13482;48.234;13.006;2022-09-30T13:02:57;19.60;68.40
25616;DHT22;13482;48.234;13.006;2022-09-30T13:15:47;19.70;68.00
25616;DHT22;13482;48.234;13.006;2022-09-30T13:23:56;19.70;67.80
25616;DHT22;13482;48.234;13.006;2022-09-30T13:34:23;19.70;67.60
25616;DHT22;13482;48.234;13.006;2022-09-30T13:37:03;19.70;67.70
25616;DHT22;13482;48.234;13.006;2022-09-30T13:39:46;19.70;68.00
25616;DHT22;13482;48.234;13.006;2022-09-30T13:42:24;19.70;67.40
25616;DHT22;13482;48.234;13.006;2022-09-30T13:50:28;19.80;68.20
25616;DHT22;13482;48.234;13.006;2022-09-30T13:53:05;19.90;68.30
25616;DHT22;13482;48.234;13.006;2022-09-30T13:55:42;20.00;68.10
25616;DHT22;13482;48.234;13.006;2022-09-30T14:02:07;20.20;66.80
25616;DHT22;13482;48.234;13.006;2022-09-30T14:05:34;20.30;67.10
25616;DHT22;13482;48.234;13.006;2022-09-30T14:17:08;20.60;68.80
25616;DHT22;13482;48.234;13.006;2022-09-30T14:19:55;20.80;69.30
25616;DHT22;13482;48.234;13.006;2022-09-30T14:22:30;21.00;68.70
25616;DHT22;13482;48.234;13.006;2022-09-30T14:24:57;21.20;68.50
25616;DHT22;13482;48.234;13.006;2022-09-30T14:27:48;21.40;68.30
25616;DHT22;13482;48.234;13.006;2022-09-30T14:30:26;21.70;67.00
25616;DHT22;13482;48.234;13.006;2022-09-30T14:35:33;22.20;68.40
25616;DHT22;13482;48.234;13.006;2022-09-30T14:38:02;22.50;66.90
25616;DHT22;13482;48.234;13.006;2022-09-30T14:40:33;22.90;68.10
25616;DHT22;13482;48.234;13.006;2022-09-30T14:43:03;23.20;67.70
25616;DHT22;13482;48.234;13.006;2022-09-30T14:45:36;23.60;67.70
25616;DHT22;13482;48.234;13.006;2022-09-30T14:48:19;23.90;67.30
25616;DHT22;13482;48.234;13.006;2022-09-30T14:51:03;24.30;64.90
25616;DHT22;13482;48.234;13.006;2022-09-30T14:53:40;24.70;65.20
25616;DHT22;13482;48.234;13.006;2022-09-30T14:56:30;25.00;65.70
25616;DHT22;13482;48.234;13.006;2022-09-30T14:59:25;25.40;64.20
25616;DHT22;13482;48.234;13.006;2022-09-30T15:02:14;25.80;63.20
25616;DHT22;13482;48.234;13.006;2022-09-30T15:04:53;26.10;64.80
25616;DHT22;13482;48.234;13.006;2022-09-30T15:07:27;26.50;63.40
25616;DHT22;13482;48.234;13.006;2022-09-30T15:10:00;26.80;64.60
25616;DHT22;13482;48.234;13.006;2022-09-30T15:12:28;27.10;62.30
25616;DHT22;13482;48.234;13.006;2022-09-30T15:14:57;27.30;62.80
25616;DHT22;13482;48.234;13.006;2022-09-30T15:17:27;27.60;61.80
25616;DHT22;13482;48.234;13.006;2022-09-30T15:19:57;27.70;61.10
25616;DHT22;13482;48.234;13.006;2022-09-30T15:22:27;27.80;60.50
25616;DHT22;13482;48.234;13.006;2022-09-30T15:24:56;27.90;60.30
25616;DHT22;13482;48.234;13.006;2022-09-30T15:27:29;28.00;60.40
25616;DHT22;13482;48.234;13.006;2022-09-30T15:29:59;28.10;59.10
25616;DHT22;13482;48.234;13.006;2022-09-30T15:32:31;28.20;59.30
25616;DHT22;13482;48.234;13.006;2022-09-30T15:35:15;28.20;58.90
25616;DHT22;13482;48.234;13.006;2022-09-30T15:37:45;28.20;56.70
25616;DHT22;13482;48.234;13.006;2022-09-30T15:40:19;28.10;58.10
25616;DHT22;13482;48.234;13.006;2022-09-30T15:43:11;27.90;57.70
25616;DHT22;13482;48.234;13.006;2022-09-30T15:45:42;27.70;56.80
25616;DHT22;13482;48.234;13.006;2022-09-30T15:48:34;27.40;57.20
25616;DHT22;13482;48.234;13.006;2022-09-30T15:51:24;27.10;55.60
25616;DHT22;13482;48.234;13.006;2022-09-30T15:54:28;26.80;55.60
25616;DHT22;13482;48.234;13.006;2022-09-30T15:56:59;26.50;56.10
25616;DHT22;13482;48.234;13.006;2022-09-30T15:59:56;26.20;57.50
25616;DHT22;13482;48.234;13.006;2022-09-30T16:02:29;25.90;56.30
25616;DHT22;13482;48.234;13.006;2022-09-30T16:04:57;25.70;57.60
25616;DHT22;13482;48.234;13.006;2022-09-30T16:07:29;25.40;57.50
25616;DHT22;13482;48.234;13.006;2022-09-30T16:09:58;25.10;57.40
25616;DHT22;13482;48.234;13.006;2022-09-30T16:12:29;24.80;57.30
25616;DHT22;13482;48.234;13.006;2022-09-30T16:15:08;24.50;57.20
25616;DHT22;13482;48.234;13.006;2022-09-30T16:17:47;24.10;56.80
25616;DHT22;13482;48.234;13.006;2022-09-30T16:25:30;23.20;58.00
25616;DHT22;13482;48.234;13.006;2022-09-30T16:28:12;22.90;57.80
25616;DHT22;13482;48.234;13.006;2022-09-30T16:30:46;22.60;58.10
25616;DHT22;13482;48.234;13.006;2022-09-30T16:33:16;22.40;58.50
25616;DHT22;13482;48.234;13.006;2022-09-30T16:35:45;22.10;59.00
25616;DHT22;13482;48.234;13.006;2022-09-30T16:38:17;21.80;59.10
25616;DHT22;13482;48.234;13.006;2022-09-30T16:40:45;21.60;59.30
25616;DHT22;13482;48.234;13.006;2022-09-30T16:43:12;21.40;59.50
25616;DHT22;13482;48.234;13.006;2022-09-30T16:45:40;21.20;59.70
25616;DHT22;13482;48.234;13.006;2022-09-30T16:48:14;21.00;60.00
25616;DHT22;13482;48.234;13.006;2022-09-30T16:53:17;20.70;60.70
25616;DHT22;13482;48.234;13.006;2022-09-30T16:55:44;20.50;60.90
25616;DHT22;13482;48.234;13.006;2022-09-30T16:58:13;20.30;61.00
25616;DHT22;13482;48.234;13.006;2022-09-30T17:00:42;20.10;61.20
25616;DHT22;13482;48.234;13.006;2022-09-30T17:03:12;19.90;61.40
25616;DHT22;13482;48.234;13.006;2022-09-30T17:05:45;19.80;61.50
25616;DHT22;13482;48.234;13.006;2022-09-30T17:08:17;19.60;61.70
25616;DHT22;13482;48.234;13.006;2022-09-30T17:10:46;19.40;61.80
25616;DHT22;13482;48.234;13.006;2022-09-30T17:13:18;19.20;61.80
25616;DHT22;13482;48.234;13.006;2022-09-30T17:15:50;19.10;61.90
25616;DHT22;13482;48.234;13.006;2022-09-30T17:18:18;18.90;62.20
25616;DHT22;13482;48.234;13.006;2022-09-30T17:20:47;18.80;62.10
25616;DHT22;13482;48.234;13.006;2022-09-30T17:23:23;18.60;62.20
25616;DHT22;13482;48.234;13.006;2022-09-30T17:25:51;18.50;62.40
25616;DHT22;13482;48.234;13.006;2022-09-30T17:28:19;18.30;62.60
25616;DHT22;13482;48.234;13.006;2022-09-30T17:30:48;18.20;62.80
25616;DHT22;13482;48.234;13.006;2022-09-30T17:33:16;18.00;63.10
25616;DHT22;13482;48.234;13.006;2022-09-30T17:35:59;17.90;63.20
25616;DHT22;13482;48.234;13.006;2022-09-30T17:38:28;17.80;63.60
25616;DHT22;13482;48.234;13.006;2022-09-30T17:40:56;17.60;63.30
25616;DHT22;13482;48.234;13.006;2022-09-30T17:43:41;17.50;63.40
25616;DHT22;13482;48.234;13.006;2022-09-30T17:46:08;17.40;63.50
25616;DHT22;13482;48.234;13.006;2022-09-30T17:48:36;17.20;63.60
25616;DHT22;13482;48.234;13.006;2022-09-30T17:51:05;17.10;63.70
25616;DHT22;13482;48.234;13.006;2022-09-30T17:53:33;17.00;63.80
25616;DHT22;13482;48.234;13.006;2022-09-30T17:56:06;16.90;64.00
25616;DHT22;13482;48.234;13.006;2022-09-30T17:58:39;16.80;64.10
25616;DHT22;13482;48.234;13.006;2022-09-30T18:01:06;16.70;64.30
25616;DHT22;13482;48.234;13.006;2022-09-30T18:03:37;16.60;64.50
25616;DHT22;13482;48.234;13.006;2022-09-30T18:06:05;16.60;64.50
25616;DHT22;13482;48.234;13.006;2022-09-30T18:08:33;16.40;64.50
25616;DHT22;13482;48.234;13.006;2022-09-30T18:11:00;16.40;64.40
25616;DHT22;13482;48.234;13.006;2022-09-30T18:13:28;16.30;64.50
25616;DHT22;13482;48.234;13.006;2022-09-30T18:15:55;16.20;64.60
25616;DHT22;13482;48.234;13.006;2022-09-30T18:18:28;16.10;64.70
25616;DHT22;13482;48.234;13.006;2022-09-30T18:20:55;16.00;64.80
25616;DHT22;13482;48.234;13.006;2022-09-30T18:23:22;15.90;64.90
25616;DHT22;13482;48.234;13.006;2022-09-30T18:25:49;15.80;65.10
25616;DHT22;13482;48.234;13.006;2022-09-30T18:28:17;15.70;65.20
25616;DHT22;13482;48.234;13.006;2022-09-30T18:30:44;15.70;65.30
25616;DHT22;13482;48.234;13.006;2022-09-30T18:33:12;15.60;65.40
25616;DHT22;13482;48.234;13.006;2022-09-30T18:35:43;15.50;65.50
25616;DHT22;13482;48.234;13.006;2022-09-30T18:38:10;15.40;65.40
25616;DHT22;13482;48.234;13.006;2022-09-30T18:40:41;15.40;65.40
25616;DHT22;13482;48.234;13.006;2022-09-30T18:43:12;15.30;65.60
25616;DHT22;13482;48.234;13.006;2022-09-30T18:45:40;15.20;65.70
25616;DHT22;13482;48.234;13.006;2022-09-30T18:48:09;15.20;65.80
25616;DHT22;13482;48.234;13.006;2022-09-30T18:50:36;15.10;65.90
25616;DHT22;13482;48.234;13.006;2022-09-30T18:53:04;15.00;66.00
25616;DHT22;13482;48.234;13.006;2022-09-30T18:55:36;14.90;66.00
25616;DHT22;13482;48.234;13.006;2022-09-30T18:58:04;14.90;66.00
25616;DHT22;13482;48.234;13.006;2022-09-30T19:00:31;14.80;66.10
25616;DHT22;13482;48.234;13.006;2022-09-30T19:02:59;14.70;66.30
25616;DHT22;13482;48.234;13.006;2022-09-30T19:05:26;14.70;66.30
25616;DHT22;13482;48.234;13.006;2022-09-30T19:07:53;14.60;66.50
25616;DHT22;13482;48.234;13.006;2022-09-30T19:10:21;14.50;66.70
25616;DHT22;13482;48.234;13.006;2022-09-30T19:12:50;14.40;66.80
25616;DHT22;13482;48.234;13.006;2022-09-30T19:15:17;14.40;66.80
25616;DHT22;13482;48.234;13.006;2022-09-30T19:17:45;14.30;67.00